sensor_id;sensor_type;location;lat;lon;timestamp;P1;durP1;ratioP1;P2;durP2;ratioP2
2722;SDS011;1369;53.216;10.396;2022-08-03T00:01:03;2.73;;;2.50;;
2722;SDS011;1369;53.216;10.396;2022-08-03T00:03:29;3.13;;;2.83;;
2722;SDS011;1369;53.216;10.396;2022-08-03T00:05:55;2.63;;;2.40;;
2722;SDS011;1369;53.216;10.396;2022-08-03T00:08:20;3.00;;;2.60;;
2722;SDS011;1369;53.216;10.396;2022-08-03T00:10:46;3.30;;;3.00;;
2722;SDS011;1369;53.216;10.396;2022-08-03T00:13:11;3.43;;;2.77;;
2722;SDS011;1369;53.216;10.396;2022-08-03T00:15:41;3.47;;;3.03;;
2722;SDS011;1369;53.216;10.396;2022-08-03T00:18:07;2.40;;;2.20;;
2722;SDS011;1369;53.216;10.396;2022-08-03T00:20:33;3.70;;;3.07;;
2722;SDS011;1369;53.216;10.396;2022-08-03T00:22:59;3.30;;;2.43;;
2722;SDS011;1369;53.216;10.396;2022-08-03T00:25:24;2.70;;;2.50;;
2722;SDS011;1369;53.216;10.396;2022-08-03T00:27:50;2.10;;;1.90;;
2722;SDS011;1369;53.216;10.396;2022-08-03T00:30:15;3.40;;;2.83;;
2722;SDS011;1369;53.216;10.396;2022-08-03T00:32:41;3.00;;;2.30;;
2722;SDS011;1369;53.216;10.396;2022-08-03T00:35:06;2.60;;;2.40;;
2722;SDS011;1369;53.216;10.396;2022-08-03T00:37:32;3.00;;;2.13;;
2722;SDS011;1369;53.216;10.396;2022-08-03T00:39:58;2.83;;;2.63;;
2722;SDS011;1369;53.216;10.396;2022-08-03T00:42:23;2.83;;;2.43;;
2722;SDS011;1369;53.216;10.396;2022-08-03T00:44:49;3.53;;;2.70;;
2722;SDS011;1369;53.216;10.396;2022-08-03T00:47:14;2.40;;;2.20;;
2722;SDS011;1369;53.216;10.396;2022-08-03T00:49:40;2.80;;;2.60;;
2722;SDS011;1369;53.216;10.396;2022-08-03T00:52:09;3.00;;;2.70;;
2722;SDS011;1369;53.216;10.396;2022-08-03T00:54:38;3.10;;;2.40;;
2722;SDS011;1369;53.216;10.396;2022-08-03T00:57:04;4.27;;;2.90;;
2722;SDS011;1369;53.216;10.396;2022-08-03T00:59:30;2.23;;;2.03;;
2722;SDS011;1369;53.216;10.396;2022-08-03T01:01:56;3.40;;;3.10;;
2722;SDS011;1369;53.216;10.396;2022-08-03T01:04:21;3.07;;;2.60;;
2722;SDS011;1369;53.216;10.396;2022-08-03T01:06:59;3.20;;;2.70;;
2722;SDS011;1369;53.216;10.396;2022-08-03T01:09:37;3.47;;;3.00;;
2722;SDS011;1369;53.216;10.396;2022-08-03T01:12:17;3.10;;;2.77;;
2722;SDS011;1369;53.216;10.396;2022-08-03T01:17:34;3.23;;;2.93;;
2722;SDS011;1369;53.216;10.396;2022-08-03T01:20:10;3.17;;;2.50;;
2722;SDS011;1369;53.216;10.396;2022-08-03T01:22:53;2.57;;;2.37;;
2722;SDS011;1369;53.216;10.396;2022-08-03T01:25:33;3.90;;;3.40;;
2722;SDS011;1369;53.216;10.396;2022-08-03T01:28:21;3.20;;;2.73;;
2722;SDS011;1369;53.216;10.396;2022-08-03T01:31:03;2.30;;;2.10;;
2722;SDS011;1369;53.216;10.396;2022-08-03T01:33:35;2.60;;;2.20;;
2722;SDS011;1369;53.216;10.396;2022-08-03T01:36:04;3.03;;;2.70;;
2722;SDS011;1369;53.216;10.396;2022-08-03T01:38:37;3.30;;;3.00;;
2722;SDS011;1369;53.216;10.396;2022-08-03T01:41:07;2.90;;;2.60;;
2722;SDS011;1369;53.216;10.396;2022-08-03T01:43:37;3.40;;;3.10;;
2722;SDS011;1369;53.216;10.396;2022-08-03T01:46:05;4.10;;;2.90;;
2722;SDS011;1369;53.216;10.396;2022-08-03T01:48:35;2.83;;;2.20;;
2722;SDS011;1369;53.216;10.396;2022-08-03T01:51:03;4.03;;;3.60;;
2722;SDS011;1369;53.216;10.396;2022-08-03T01:53:30;3.53;;;3.20;;
2722;SDS011;1369;53.216;10.396;2022-08-03T01:55:58;3.07;;;2.77;;
2722;SDS011;1369;53.216;10.396;2022-08-03T01:58:26;2.17;;;1.97;;
2722;SDS011;1369;53.216;10.396;2022-08-03T02:00:53;3.33;;;2.73;;
2722;SDS011;1369;53.216;10.396;2022-08-03T02:03:24;4.03;;;3.20;;
2722;SDS011;1369;53.216;10.396;2022-08-03T02:05:52;4.33;;;3.03;;
2722;SDS011;1369;53.216;10.396;2022-08-03T02:08:20;2.87;;;2.60;;
2722;SDS011;1369;53.216;10.396;2022-08-03T02:10:49;3.30;;;2.80;;
2722;SDS011;1369;53.216;10.396;2022-08-03T02:13:16;3.67;;;3.37;;
2722;SDS011;1369;53.216;10.396;2022-08-03T02:15:44;3.77;;;3.03;;
2722;SDS011;1369;53.216;10.396;2022-08-03T02:18:10;3.93;;;3.53;;
2722;SDS011;1369;53.216;10.396;2022-08-03T02:20:38;3.30;;;3.00;;
2722;SDS011;1369;53.216;10.396;2022-08-03T02:23:06;3.70;;;2.83;;
2722;SDS011;1369;53.216;10.396;2022-08-03T02:25:36;3.50;;;3.20;;
2722;SDS011;1369;53.216;10.396;2022-08-03T02:28:09;3.33;;;2.37;;
2722;SDS011;1369;53.216;10.396;2022-08-03T02:30:38;3.27;;;2.67;;
2722;SDS011;1369;53.216;10.396;2022-08-03T02:33:09;3.83;;;3.20;;
2722;SDS011;1369;53.216;10.396;2022-08-03T02:35:37;2.80;;;2.60;;
2722;SDS011;1369;53.216;10.396;2022-08-03T02:38:06;3.27;;;2.97;;
2722;SDS011;1369;53.216;10.396;2022-08-03T02:40:33;2.60;;;2.40;;
2722;SDS011;1369;53.216;10.396;2022-08-03T02:43:02;7.83;;;2.87;;
2722;SDS011;1369;53.216;10.396;2022-08-03T02:45:31;3.77;;;2.70;;
2722;SDS011;1369;53.216;10.396;2022-08-03T02:48:01;3.63;;;2.97;;
2722;SDS011;1369;53.216;10.396;2022-08-03T02:50:29;3.07;;;2.70;;
2722;SDS011;1369;53.216;10.396;2022-08-03T02:52:56;3.40;;;3.00;;
2722;SDS011;1369;53.216;10.396;2022-08-03T02:55:23;3.60;;;2.70;;
2722;SDS011;1369;53.216;10.396;2022-08-03T02:57:51;4.47;;;2.83;;
2722;SDS011;1369;53.216;10.396;2022-08-03T03:00:18;2.97;;;2.70;;
2722;SDS011;1369;53.216;10.396;2022-08-03T03:02:44;4.20;;;2.80;;
2722;SDS011;1369;53.216;10.396;2022-08-03T03:05:10;3.53;;;2.70;;
2722;SDS011;1369;53.216;10.396;2022-08-03T03:07:36;3.67;;;3.20;;
2722;SDS011;1369;53.216;10.396;2022-08-03T03:10:03;3.83;;;2.97;;
2722;SDS011;1369;53.216;10.396;2022-08-03T03:12:30;3.40;;;3.03;;
2722;SDS011;1369;53.216;10.396;2022-08-03T03:14:57;3.13;;;2.83;;
2722;SDS011;1369;53.216;10.396;2022-08-03T03:17:22;3.20;;;3.00;;
2722;SDS011;1369;53.216;10.396;2022-08-03T03:19:51;3.37;;;2.80;;
2722;SDS011;1369;53.216;10.396;2022-08-03T03:22:18;3.63;;;3.10;;
2722;SDS011;1369;53.216;10.396;2022-08-03T03:24:44;3.03;;;2.73;;
2722;SDS011;1369;53.216;10.396;2022-08-03T03:27:12;3.33;;;3.03;;
2722;SDS011;1369;53.216;10.396;2022-08-03T03:29:39;4.03;;;3.17;;
2722;SDS011;1369;53.216;10.396;2022-08-03T03:32:05;4.30;;;3.20;;
2722;SDS011;1369;53.216;10.396;2022-08-03T03:34:30;3.13;;;2.83;;
2722;SDS011;1369;53.216;10.396;2022-08-03T03:36:57;3.97;;;3.37;;
2722;SDS011;1369;53.216;10.396;2022-08-03T03:39:23;4.33;;;3.40;;
2722;SDS011;1369;53.216;10.396;2022-08-03T03:41:48;3.77;;;3.30;;
2722;SDS011;1369;53.216;10.396;2022-08-03T03:44:14;3.27;;;2.97;;
2722;SDS011;1369;53.216;10.396;2022-08-03T03:46:40;3.80;;;3.23;;
2722;SDS011;1369;53.216;10.396;2022-08-03T03:49:06;3.53;;;3.23;;
2722;SDS011;1369;53.216;10.396;2022-08-03T03:51:32;2.67;;;2.47;;
2722;SDS011;1369;53.216;10.396;2022-08-03T03:53:58;3.37;;;3.07;;
2722;SDS011;1369;53.216;10.396;2022-08-03T03:56:26;2.87;;;2.67;;
2722;SDS011;1369;53.216;10.396;2022-08-03T03:58:51;3.50;;;2.93;;
2722;SDS011;1369;53.216;10.396;2022-08-03T04:01:18;3.20;;;2.80;;
2722;SDS011;1369;53.216;10.396;2022-08-03T04:03:43;3.43;;;3.13;;
2722;SDS011;1369;53.216;10.396;2022-08-03T04:06:09;4.03;;;3.17;;
2722;SDS011;1369;53.216;10.396;2022-08-03T04:08:54;2.83;;;2.37;;
2722;SDS011;1369;53.216;10.396;2022-08-03T04:11:39;4.47;;;3.60;;
2722;SDS011;1369;53.216;10.396;2022-08-03T04:14:12;2.63;;;2.43;;
2722;SDS011;1369;53.216;10.396;2022-08-03T04:17:02;3.47;;;2.83;;
2722;SDS011;1369;53.216;10.396;2022-08-03T04:19:46;6.80;;;2.97;;
2722;SDS011;1369;53.216;10.396;2022-08-03T04:22:22;4.33;;;3.03;;
2722;SDS011;1369;53.216;10.396;2022-08-03T04:24:58;3.97;;;3.47;;
2722;SDS011;1369;53.216;10.396;2022-08-03T04:27:27;3.50;;;2.80;;
2722;SDS011;1369;53.216;10.396;2022-08-03T04:30:05;4.30;;;3.17;;
2722;SDS011;1369;53.216;10.396;2022-08-03T04:32:33;2.53;;;2.33;;
2722;SDS011;1369;53.216;10.396;2022-08-03T04:35:00;4.60;;;2.90;;
2722;SDS011;1369;53.216;10.396;2022-08-03T04:40:17;3.30;;;3.00;;
2722;SDS011;1369;53.216;10.396;2022-08-03T04:42:47;4.23;;;3.53;;
2722;SDS011;1369;53.216;10.396;2022-08-03T04:45:14;3.83;;;3.30;;
2722;SDS011;1369;53.216;10.396;2022-08-03T04:47:41;2.63;;;2.43;;
2722;SDS011;1369;53.216;10.396;2022-08-03T04:50:07;3.70;;;3.30;;
2722;SDS011;1369;53.216;10.396;2022-08-03T04:52:33;3.37;;;3.07;;
2722;SDS011;1369;53.216;10.396;2022-08-03T04:55:00;2.53;;;2.33;;
2722;SDS011;1369;53.216;10.396;2022-08-03T04:57:25;3.50;;;3.20;;
2722;SDS011;1369;53.216;10.396;2022-08-03T04:59:51;3.40;;;3.03;;
2722;SDS011;1369;53.216;10.396;2022-08-03T05:02:21;3.30;;;3.00;;
2722;SDS011;1369;53.216;10.396;2022-08-03T05:04:47;2.63;;;2.43;;
2722;SDS011;1369;53.216;10.396;2022-08-03T05:07:14;3.47;;;3.17;;
2722;SDS011;1369;53.216;10.396;2022-08-03T05:09:41;2.87;;;2.43;;
2722;SDS011;1369;53.216;10.396;2022-08-03T05:12:08;3.13;;;2.40;;
2722;SDS011;1369;53.216;10.396;2022-08-03T05:14:34;4.00;;;2.90;;
2722;SDS011;1369;53.216;10.396;2022-08-03T05:17:02;3.37;;;3.07;;
2722;SDS011;1369;53.216;10.396;2022-08-03T05:19:28;3.80;;;3.20;;
2722;SDS011;1369;53.216;10.396;2022-08-03T05:21:54;4.40;;;3.83;;
2722;SDS011;1369;53.216;10.396;2022-08-03T05:24:20;2.60;;;2.40;;
2722;SDS011;1369;53.216;10.396;2022-08-03T05:26:45;3.23;;;2.93;;
2722;SDS011;1369;53.216;10.396;2022-08-03T05:29:11;2.93;;;2.63;;
2722;SDS011;1369;53.216;10.396;2022-08-03T05:31:36;4.53;;;3.50;;
2722;SDS011;1369;53.216;10.396;2022-08-03T05:34:02;3.23;;;2.93;;
2722;SDS011;1369;53.216;10.396;2022-08-03T05:36:27;3.30;;;2.63;;
2722;SDS011;1369;53.216;10.396;2022-08-03T05:38:53;3.63;;;3.33;;
2722;SDS011;1369;53.216;10.396;2022-08-03T05:41:18;4.03;;;3.33;;
2722;SDS011;1369;53.216;10.396;2022-08-03T05:43:44;3.37;;;3.00;;
2722;SDS011;1369;53.216;10.396;2022-08-03T05:46:10;3.67;;;3.37;;
2722;SDS011;1369;53.216;10.396;2022-08-03T05:48:36;3.53;;;3.23;;
2722;SDS011;1369;53.216;10.396;2022-08-03T05:51:01;2.57;;;2.37;;
2722;SDS011;1369;53.216;10.396;2022-08-03T05:53:31;2.67;;;2.43;;
2722;SDS011;1369;53.216;10.396;2022-08-03T05:55:57;3.87;;;3.23;;
2722;SDS011;1369;53.216;10.396;2022-08-03T05:58:23;5.10;;;3.20;;
2722;SDS011;1369;53.216;10.396;2022-08-03T06:00:48;4.50;;;3.40;;
2722;SDS011;1369;53.216;10.396;2022-08-03T06:03:14;3.80;;;3.40;;
2722;SDS011;1369;53.216;10.396;2022-08-03T06:05:40;3.70;;;3.17;;
2722;SDS011;1369;53.216;10.396;2022-08-03T06:08:05;3.40;;;3.10;;
2722;SDS011;1369;53.216;10.396;2022-08-03T06:10:31;3.10;;;2.40;;
2722;SDS011;1369;53.216;10.396;2022-08-03T06:12:57;3.97;;;3.33;;
2722;SDS011;1369;53.216;10.396;2022-08-03T06:15:22;3.83;;;3.53;;
2722;SDS011;1369;53.216;10.396;2022-08-03T06:17:48;3.77;;;3.40;;
2722;SDS011;1369;53.216;10.396;2022-08-03T06:20:15;3.63;;;3.27;;
2722;SDS011;1369;53.216;10.396;2022-08-03T06:22:42;4.07;;;3.10;;
2722;SDS011;1369;53.216;10.396;2022-08-03T06:25:07;3.70;;;3.30;;
2722;SDS011;1369;53.216;10.396;2022-08-03T06:27:33;3.47;;;3.13;;
2722;SDS011;1369;53.216;10.396;2022-08-03T06:30:00;4.20;;;3.10;;
2722;SDS011;1369;53.216;10.396;2022-08-03T06:32:26;3.07;;;2.73;;
2722;SDS011;1369;53.216;10.396;2022-08-03T06:34:52;3.27;;;2.97;;
2722;SDS011;1369;53.216;10.396;2022-08-03T06:37:17;3.77;;;3.20;;
2722;SDS011;1369;53.216;10.396;2022-08-03T06:39:43;4.53;;;4.13;;
2722;SDS011;1369;53.216;10.396;2022-08-03T06:42:08;3.73;;;2.70;;
2722;SDS011;1369;53.216;10.396;2022-08-03T06:44:34;3.67;;;3.27;;
2722;SDS011;1369;53.216;10.396;2022-08-03T06:47:01;2.70;;;2.40;;
2722;SDS011;1369;53.216;10.396;2022-08-03T06:49:26;2.90;;;2.60;;
2722;SDS011;1369;53.216;10.396;2022-08-03T06:51:52;3.03;;;2.73;;
2722;SDS011;1369;53.216;10.396;2022-08-03T06:54:18;3.57;;;2.70;;
2722;SDS011;1369;53.216;10.396;2022-08-03T06:56:46;2.93;;;2.70;;
2722;SDS011;1369;53.216;10.396;2022-08-03T06:59:11;3.13;;;2.83;;
2722;SDS011;1369;53.216;10.396;2022-08-03T07:01:37;3.27;;;2.97;;
2722;SDS011;1369;53.216;10.396;2022-08-03T07:04:02;3.33;;;3.03;;
2722;SDS011;1369;53.216;10.396;2022-08-03T07:06:28;3.20;;;2.90;;
2722;SDS011;1369;53.216;10.396;2022-08-03T07:08:54;3.30;;;3.00;;
2722;SDS011;1369;53.216;10.396;2022-08-03T07:11:20;2.83;;;2.53;;
2722;SDS011;1369;53.216;10.396;2022-08-03T07:13:46;3.70;;;2.90;;
2722;SDS011;1369;53.216;10.396;2022-08-03T07:16:11;2.73;;;2.43;;
2722;SDS011;1369;53.216;10.396;2022-08-03T07:18:39;2.80;;;2.53;;
2722;SDS011;1369;53.216;10.396;2022-08-03T07:21:06;2.17;;;1.77;;
2722;SDS011;1369;53.216;10.396;2022-08-03T07:23:33;3.67;;;2.70;;
2722;SDS011;1369;53.216;10.396;2022-08-03T07:25:59;2.10;;;1.83;;
2722;SDS011;1369;53.216;10.396;2022-08-03T07:28:24;1.70;;;1.57;;
2722;SDS011;1369;53.216;10.396;2022-08-03T07:30:50;1.90;;;1.70;;
2722;SDS011;1369;53.216;10.396;2022-08-03T07:33:15;2.13;;;1.80;;
2722;SDS011;1369;53.216;10.396;2022-08-03T07:35:41;1.90;;;1.50;;
2722;SDS011;1369;53.216;10.396;2022-08-03T07:38:06;2.23;;;2.03;;
2722;SDS011;1369;53.216;10.396;2022-08-03T07:40:32;2.37;;;2.00;;
2722;SDS011;1369;53.216;10.396;2022-08-03T07:42:58;2.23;;;1.60;;
2722;SDS011;1369;53.216;10.396;2022-08-03T07:45:24;2.30;;;2.10;;
2722;SDS011;1369;53.216;10.396;2022-08-03T07:47:50;2.07;;;1.87;;
2722;SDS011;1369;53.216;10.396;2022-08-03T07:50:16;2.00;;;1.63;;
2722;SDS011;1369;53.216;10.396;2022-08-03T07:52:41;2.00;;;1.47;;
2722;SDS011;1369;53.216;10.396;2022-08-03T07:55:13;1.80;;;1.70;;
2722;SDS011;1369;53.216;10.396;2022-08-03T07:57:39;1.90;;;1.70;;
2722;SDS011;1369;53.216;10.396;2022-08-03T08:00:07;2.20;;;1.93;;
2722;SDS011;1369;53.216;10.396;2022-08-03T08:02:38;2.67;;;1.67;;
2722;SDS011;1369;53.216;10.396;2022-08-03T08:05:04;2.40;;;1.57;;
2722;SDS011;1369;53.216;10.396;2022-08-03T08:07:30;1.53;;;1.43;;
2722;SDS011;1369;53.216;10.396;2022-08-03T08:09:55;2.23;;;1.80;;
2722;SDS011;1369;53.216;10.396;2022-08-03T08:12:21;2.50;;;1.63;;
2722;SDS011;1369;53.216;10.396;2022-08-03T08:14:46;1.80;;;1.63;;
2722;SDS011;1369;53.216;10.396;2022-08-03T08:17:12;3.63;;;2.10;;
2722;SDS011;1369;53.216;10.396;2022-08-03T08:19:38;2.03;;;1.83;;
2722;SDS011;1369;53.216;10.396;2022-08-03T08:22:03;2.20;;;1.90;;
2722;SDS011;1369;53.216;10.396;2022-08-03T08:24:30;1.90;;;1.70;;
2722;SDS011;1369;53.216;10.396;2022-08-03T08:26:57;2.53;;;1.50;;
2722;SDS011;1369;53.216;10.396;2022-08-03T08:29:24;2.17;;;1.93;;
2722;SDS011;1369;53.216;10.396;2022-08-03T08:31:49;1.50;;;1.20;;
2722;SDS011;1369;53.216;10.396;2022-08-03T08:34:15;1.80;;;1.30;;
2722;SDS011;1369;53.216;10.396;2022-08-03T08:36:40;3.20;;;2.03;;
2722;SDS011;1369;53.216;10.396;2022-08-03T08:39:06;1.90;;;1.53;;
2722;SDS011;1369;53.216;10.396;2022-08-03T08:41:31;3.63;;;1.20;;
2722;SDS011;1369;53.216;10.396;2022-08-03T08:44:00;1.30;;;1.20;;
2722;SDS011;1369;53.216;10.396;2022-08-03T08:46:26;1.90;;;1.40;;
2722;SDS011;1369;53.216;10.396;2022-08-03T08:48:55;1.80;;;1.50;;
2722;SDS011;1369;53.216;10.396;2022-08-03T08:51:22;1.43;;;1.27;;
2722;SDS011;1369;53.216;10.396;2022-08-03T08:53:53;2.33;;;1.90;;
2722;SDS011;1369;53.216;10.396;2022-08-03T08:56:21;2.70;;;1.33;;
2722;SDS011;1369;53.216;10.396;2022-08-03T08:58:53;1.60;;;1.40;;
2722;SDS011;1369;53.216;10.396;2022-08-03T09:01:22;1.60;;;1.43;;
2722;SDS011;1369;53.216;10.396;2022-08-03T09:03:48;1.57;;;1.20;;
2722;SDS011;1369;53.216;10.396;2022-08-03T09:06:14;2.30;;;1.70;;
2722;SDS011;1369;53.216;10.396;2022-08-03T09:08:39;2.73;;;1.70;;
2722;SDS011;1369;53.216;10.396;2022-08-03T09:11:05;1.50;;;1.17;;
2722;SDS011;1369;53.216;10.396;2022-08-03T09:13:31;2.33;;;2.13;;
2722;SDS011;1369;53.216;10.396;2022-08-03T09:16:13;1.80;;;1.37;;
2722;SDS011;1369;53.216;10.396;2022-08-03T09:18:42;3.47;;;1.60;;
2722;SDS011;1369;53.216;10.396;2022-08-03T09:21:19;1.80;;;1.67;;
2722;SDS011;1369;53.216;10.396;2022-08-03T09:23:51;1.90;;;1.50;;
2722;SDS011;1369;53.216;10.396;2022-08-03T09:26:21;1.40;;;1.10;;
2722;SDS011;1369;53.216;10.396;2022-08-03T09:29:01;1.83;;;1.43;;
2722;SDS011;1369;53.216;10.396;2022-08-03T09:31:33;1.40;;;1.20;;
2722;SDS011;1369;53.216;10.396;2022-08-03T09:34:06;1.90;;;1.60;;
2722;SDS011;1369;53.216;10.396;2022-08-03T09:36:34;2.00;;;1.40;;
2722;SDS011;1369;53.216;10.396;2022-08-03T09:39:11;2.70;;;1.63;;
2722;SDS011;1369;53.216;10.396;2022-08-03T09:41:39;1.70;;;1.60;;
2722;SDS011;1369;53.216;10.396;2022-08-03T09:44:06;2.23;;;1.40;;
2722;SDS011;1369;53.216;10.396;2022-08-03T09:46:46;1.40;;;1.23;;
2722;SDS011;1369;53.216;10.396;2022-08-03T09:49:13;1.53;;;1.00;;
2722;SDS011;1369;53.216;10.396;2022-08-03T09:51:39;1.97;;;1.20;;
2722;SDS011;1369;53.216;10.396;2022-08-03T09:54:05;2.00;;;1.43;;
2722;SDS011;1369;53.216;10.396;2022-08-03T09:56:42;1.47;;;1.20;;
2722;SDS011;1369;53.216;10.396;2022-08-03T09:59:09;1.87;;;1.60;;
2722;SDS011;1369;53.216;10.396;2022-08-03T10:01:36;1.40;;;1.20;;
2722;SDS011;1369;53.216;10.396;2022-08-03T10:04:03;1.90;;;1.67;;
2722;SDS011;1369;53.216;10.396;2022-08-03T10:06:28;1.50;;;1.30;;
2722;SDS011;1369;53.216;10.396;2022-08-03T10:09:07;1.83;;;1.40;;
2722;SDS011;1369;53.216;10.396;2022-08-03T10:11:34;1.70;;;1.50;;
2722;SDS011;1369;53.216;10.396;2022-08-03T10:14:03;1.43;;;1.20;;
2722;SDS011;1369;53.216;10.396;2022-08-03T10:16:34;1.60;;;1.13;;
2722;SDS011;1369;53.216;10.396;2022-08-03T10:19:02;1.90;;;1.50;;
2722;SDS011;1369;53.216;10.396;2022-08-03T10:21:33;1.50;;;1.40;;
2722;SDS011;1369;53.216;10.396;2022-08-03T10:24:07;1.67;;;1.33;;
2722;SDS011;1369;53.216;10.396;2022-08-03T10:26:35;1.40;;;1.23;;
2722;SDS011;1369;53.216;10.396;2022-08-03T10:29:07;2.50;;;1.37;;
2722;SDS011;1369;53.216;10.396;2022-08-03T10:31:43;1.80;;;1.47;;
2722;SDS011;1369;53.216;10.396;2022-08-03T10:34:14;1.63;;;1.10;;
2722;SDS011;1369;53.216;10.396;2022-08-03T10:36:47;1.50;;;1.10;;
2722;SDS011;1369;53.216;10.396;2022-08-03T10:39:14;1.87;;;1.23;;
2722;SDS011;1369;53.216;10.396;2022-08-03T10:41:45;2.17;;;1.50;;
2722;SDS011;1369;53.216;10.396;2022-08-03T10:44:17;1.70;;;1.37;;
2722;SDS011;1369;53.216;10.396;2022-08-03T10:46:43;1.63;;;1.47;;
2722;SDS011;1369;53.216;10.396;2022-08-03T10:49:11;1.47;;;1.13;;
2722;SDS011;1369;53.216;10.396;2022-08-03T10:51:43;1.63;;;1.23;;
2722;SDS011;1369;53.216;10.396;2022-08-03T11:00:18;1.37;;;1.10;;
2722;SDS011;1369;53.216;10.396;2022-08-03T11:05:27;1.57;;;1.03;;
2722;SDS011;1369;53.216;10.396;2022-08-03T11:08:16;1.80;;;1.37;;
2722;SDS011;1369;53.216;10.396;2022-08-03T11:10:41;2.40;;;1.47;;
2722;SDS011;1369;53.216;10.396;2022-08-03T11:13:07;1.40;;;1.20;;
2722;SDS011;1369;53.216;10.396;2022-08-03T11:15:34;1.30;;;1.03;;
2722;SDS011;1369;53.216;10.396;2022-08-03T11:18:05;3.90;;;2.33;;
2722;SDS011;1369;53.216;10.396;2022-08-03T11:20:42;1.57;;;1.30;;
2722;SDS011;1369;53.216;10.396;2022-08-03T11:23:13;1.50;;;1.30;;
2722;SDS011;1369;53.216;10.396;2022-08-03T11:28:35;1.80;;;1.27;;
2722;SDS011;1369;53.216;10.396;2022-08-03T11:39:41;1.50;;;1.03;;
2722;SDS011;1369;53.216;10.396;2022-08-03T11:42:54;1.60;;;1.50;;
2722;SDS011;1369;53.216;10.396;2022-08-03T11:44:58;2.43;;;1.37;;
2722;SDS011;1369;53.216;10.396;2022-08-03T11:47:25;1.80;;;1.33;;
2722;SDS011;1369;53.216;10.396;2022-08-03T11:49:54;1.30;;;1.13;;
2722;SDS011;1369;53.216;10.396;2022-08-03T11:52:22;1.70;;;1.20;;
2722;SDS011;1369;53.216;10.396;2022-08-03T11:54:51;3.87;;;1.40;;
2722;SDS011;1369;53.216;10.396;2022-08-03T11:57:28;2.77;;;1.10;;
2722;SDS011;1369;53.216;10.396;2022-08-03T11:59:58;1.90;;;1.20;;
2722;SDS011;1369;53.216;10.396;2022-08-03T12:02:23;2.30;;;1.30;;
2722;SDS011;1369;53.216;10.396;2022-08-03T12:04:53;1.97;;;1.57;;
2722;SDS011;1369;53.216;10.396;2022-08-03T12:07:24;1.30;;;0.90;;
2722;SDS011;1369;53.216;10.396;2022-08-03T12:10:06;2.03;;;1.23;;
2722;SDS011;1369;53.216;10.396;2022-08-03T12:12:39;3.00;;;1.50;;
2722;SDS011;1369;53.216;10.396;2022-08-03T12:15:05;1.47;;;1.17;;
2722;SDS011;1369;53.216;10.396;2022-08-03T12:17:35;1.43;;;1.27;;
2722;SDS011;1369;53.216;10.396;2022-08-03T12:20:02;1.70;;;1.27;;
2722;SDS011;1369;53.216;10.396;2022-08-03T12:22:29;1.67;;;1.27;;
2722;SDS011;1369;53.216;10.396;2022-08-03T12:24:56;2.50;;;1.30;;
2722;SDS011;1369;53.216;10.396;2022-08-03T12:27:25;1.60;;;1.20;;
2722;SDS011;1369;53.216;10.396;2022-08-03T12:29:53;2.57;;;2.20;;
2722;SDS011;1369;53.216;10.396;2022-08-03T12:32:20;1.50;;;1.20;;
2722;SDS011;1369;53.216;10.396;2022-08-03T12:34:46;1.80;;;1.27;;
2722;SDS011;1369;53.216;10.396;2022-08-03T12:37:12;2.43;;;1.53;;
2722;SDS011;1369;53.216;10.396;2022-08-03T12:39:42;1.60;;;1.20;;
2722;SDS011;1369;53.216;10.396;2022-08-03T12:42:17;1.53;;;1.30;;
2722;SDS011;1369;53.216;10.396;2022-08-03T12:44:43;1.83;;;1.63;;
2722;SDS011;1369;53.216;10.396;2022-08-03T12:47:09;2.17;;;1.37;;
2722;SDS011;1369;53.216;10.396;2022-08-03T12:49:45;1.60;;;1.20;;
2722;SDS011;1369;53.216;10.396;2022-08-03T12:52:18;1.90;;;1.70;;
2722;SDS011;1369;53.216;10.396;2022-08-03T12:54:58;1.50;;;1.10;;
2722;SDS011;1369;53.216;10.396;2022-08-03T12:57:25;2.20;;;1.87;;
2722;SDS011;1369;53.216;10.396;2022-08-03T13:00:18;1.40;;;1.03;;
2722;SDS011;1369;53.216;10.396;2022-08-03T13:02:44;2.00;;;1.37;;
2722;SDS011;1369;53.216;10.396;2022-08-03T13:05:10;1.40;;;1.10;;
2722;SDS011;1369;53.216;10.396;2022-08-03T13:07:40;1.50;;;1.20;;
2722;SDS011;1369;53.216;10.396;2022-08-03T13:10:06;1.50;;;1.23;;
2722;SDS011;1369;53.216;10.396;2022-08-03T13:12:44;1.40;;;1.07;;
2722;SDS011;1369;53.216;10.396;2022-08-03T13:15:13;2.23;;;1.50;;
2722;SDS011;1369;53.216;10.396;2022-08-03T13:17:39;1.40;;;1.10;;
2722;SDS011;1369;53.216;10.396;2022-08-03T13:20:08;2.57;;;1.10;;
2722;SDS011;1369;53.216;10.396;2022-08-03T13:22:34;1.50;;;1.33;;
2722;SDS011;1369;53.216;10.396;2022-08-03T13:25:00;1.63;;;1.20;;
2722;SDS011;1369;53.216;10.396;2022-08-03T13:27:27;1.50;;;0.93;;
2722;SDS011;1369;53.216;10.396;2022-08-03T13:29:53;1.53;;;1.10;;
2722;SDS011;1369;53.216;10.396;2022-08-03T13:32:19;1.30;;;1.07;;
2722;SDS011;1369;53.216;10.396;2022-08-03T13:34:45;1.57;;;0.90;;
2722;SDS011;1369;53.216;10.396;2022-08-03T13:37:11;1.40;;;1.00;;
2722;SDS011;1369;53.216;10.396;2022-08-03T13:39:38;1.30;;;0.90;;
2722;SDS011;1369;53.216;10.396;2022-08-03T13:42:04;1.70;;;1.13;;
2722;SDS011;1369;53.216;10.396;2022-08-03T13:44:32;1.93;;;1.17;;
2722;SDS011;1369;53.216;10.396;2022-08-03T13:47:00;1.43;;;1.13;;
2722;SDS011;1369;53.216;10.396;2022-08-03T13:49:26;4.13;;;1.40;;
2722;SDS011;1369;53.216;10.396;2022-08-03T13:51:53;1.70;;;1.00;;
2722;SDS011;1369;53.216;10.396;2022-08-03T13:54:21;3.03;;;1.53;;
2722;SDS011;1369;53.216;10.396;2022-08-03T13:56:46;1.87;;;1.40;;
2722;SDS011;1369;53.216;10.396;2022-08-03T13:59:21;2.37;;;1.97;;
2722;SDS011;1369;53.216;10.396;2022-08-03T14:01:48;1.63;;;1.23;;
2722;SDS011;1369;53.216;10.396;2022-08-03T14:04:14;1.93;;;1.27;;
2722;SDS011;1369;53.216;10.396;2022-08-03T14:06:41;3.13;;;1.40;;
2722;SDS011;1369;53.216;10.396;2022-08-03T14:09:09;1.60;;;1.20;;
2722;SDS011;1369;53.216;10.396;2022-08-03T14:11:39;2.00;;;1.40;;
2722;SDS011;1369;53.216;10.396;2022-08-03T14:14:05;2.60;;;1.27;;
2722;SDS011;1369;53.216;10.396;2022-08-03T14:16:30;1.93;;;1.30;;
2722;SDS011;1369;53.216;10.396;2022-08-03T14:18:56;1.30;;;1.00;;
2722;SDS011;1369;53.216;10.396;2022-08-03T14:21:21;1.40;;;1.10;;
2722;SDS011;1369;53.216;10.396;2022-08-03T14:23:47;3.23;;;1.40;;
2722;SDS011;1369;53.216;10.396;2022-08-03T14:26:12;1.30;;;1.00;;
2722;SDS011;1369;53.216;10.396;2022-08-03T14:28:38;1.50;;;1.20;;
2722;SDS011;1369;53.216;10.396;2022-08-03T14:31:04;1.27;;;1.00;;
2722;SDS011;1369;53.216;10.396;2022-08-03T14:33:30;2.53;;;1.50;;
2722;SDS011;1369;53.216;10.396;2022-08-03T14:35:55;2.27;;;1.30;;
2722;SDS011;1369;53.216;10.396;2022-08-03T14:38:22;1.90;;;1.40;;
2722;SDS011;1369;53.216;10.396;2022-08-03T14:40:47;2.00;;;1.40;;
2722;SDS011;1369;53.216;10.396;2022-08-03T14:43:14;1.50;;;1.20;;
2722;SDS011;1369;53.216;10.396;2022-08-03T14:45:42;1.40;;;1.03;;
2722;SDS011;1369;53.216;10.396;2022-08-03T14:48:07;3.53;;;1.20;;
2722;SDS011;1369;53.216;10.396;2022-08-03T14:50:33;5.83;;;1.00;;
2722;SDS011;1369;53.216;10.396;2022-08-03T14:52:58;1.47;;;1.03;;
2722;SDS011;1369;53.216;10.396;2022-08-03T14:55:24;8.13;;;1.47;;
2722;SDS011;1369;53.216;10.396;2022-08-03T14:57:49;1.73;;;1.30;;
2722;SDS011;1369;53.216;10.396;2022-08-03T15:00:15;1.87;;;1.13;;
2722;SDS011;1369;53.216;10.396;2022-08-03T15:02:40;1.40;;;1.20;;
2722;SDS011;1369;53.216;10.396;2022-08-03T15:05:06;2.00;;;1.00;;
2722;SDS011;1369;53.216;10.396;2022-08-03T15:07:32;1.43;;;1.27;;
2722;SDS011;1369;53.216;10.396;2022-08-03T15:09:58;2.43;;;1.20;;
2722;SDS011;1369;53.216;10.396;2022-08-03T15:12:24;1.43;;;1.27;;
2722;SDS011;1369;53.216;10.396;2022-08-03T15:14:49;3.03;;;1.50;;
2722;SDS011;1369;53.216;10.396;2022-08-03T15:17:15;1.77;;;1.30;;
2722;SDS011;1369;53.216;10.396;2022-08-03T15:19:42;4.10;;;1.43;;
2722;SDS011;1369;53.216;10.396;2022-08-03T15:22:07;1.70;;;1.43;;
2722;SDS011;1369;53.216;10.396;2022-08-03T15:24:33;3.93;;;1.37;;
2722;SDS011;1369;53.216;10.396;2022-08-03T15:26:58;1.97;;;1.43;;
2722;SDS011;1369;53.216;10.396;2022-08-03T15:29:24;1.60;;;1.43;;
2722;SDS011;1369;53.216;10.396;2022-08-03T15:31:50;1.53;;;1.13;;